Terminal Aerodrome Forecast
Issued by NWS Wilmington, NC

Home | Current Version | Previous Version | Text Only | Print | Product List | Glossary On
Versions: 1 2 3 4 5 6 7 8 9 10 11 12 13
000
FTUS42 KILM 261720
TAFLBT
TAF
KLBT 261720Z 2618/2718 01011KT P6SM OVC015
     FM270000 01005KT P6SM SCT015
     FM270900 34009KT P6SM SCT140
      AMD NOT SKED=

USA.gov is the U.S. government's official web portal to all federal, state and local government web resources and services.